Time;durP1;ratioP1;P1;durP2;ratioP2;P2;SDS_P1;SDS_P2;PMS_P1;PMS_P2;Temp;Humidity;BMP_temperature;BMP_pressure;BME280_temperature;BME280_humidity;BME280_pressure;Samples;Min_cycle;Max_cycle;Signal;HPM_P1;HPM_P2
2021/07/06 00:00:09;;;;;;;3.00;2.00;;;20.50;99.90;;;;;;5014980;28;20173;-57
2021/07/06 00:02:35;;;;;;;3.00;2.00;;;19.60;99.90;;;;;;5014988;28;20659;-59
2021/07/06 00:05:00;;;;;;;2.00;1.90;;;19.70;99.90;;;;;;5015391;28;20188;-55
2021/07/06 00:07:27;;;;;;;2.40;2.20;;;19.60;99.90;;;;;;5014350;28;20640;-58
2021/07/06 00:09:52;;;;;;;1.80;1.70;;;19.50;99.90;;;;;;5015151;28;20219;-55
2021/07/06 00:12:18;;;;;;;2.10;1.80;;;19.40;99.90;;;;;;5014022;28;20556;-60
2021/07/06 00:14:45;;;;;;;2.07;1.80;;;19.40;99.90;;;;;;5015503;28;20180;-61
2021/07/06 00:17:11;;;;;;;2.97;2.10;;;19.40;99.90;;;;;;5015256;28;20188;-61
2021/07/06 00:19:37;;;;;;;4.10;2.30;;;19.30;99.90;;;;;;5015220;28;20180;-57
2021/07/06 00:22:03;;;;;;;2.30;1.70;;;19.30;99.90;;;;;;5014112;28;20192;-61
2021/07/06 00:24:29;;;;;;;3.37;2.07;;;19.30;99.90;;;;;;5014705;28;20175;-61
2021/07/06 00:26:55;;;;;;;2.33;1.90;;;19.30;99.90;;;;;;5014937;28;20206;-55
2021/07/06 00:29:21;;;;;;;3.20;2.00;;;19.30;99.90;;;;;;5014140;28;20171;-59
2021/07/06 00:31:47;;;;;;;2.27;1.90;;;19.30;99.90;;;;;;5014723;28;20207;-58
2021/07/06 00:34:12;;;;;;;2.93;1.87;;;19.20;99.90;;;;;;5014860;28;20177;-58
2021/07/06 00:36:38;;;;;;;2.00;1.70;;;19.20;99.90;;;;;;5013684;28;20230;-59
2021/07/06 00:39:05;;;;;;;2.27;1.97;;;19.20;99.90;;;;;;5015151;28;20633;-58
2021/07/06 00:41:33;;;;;;;4.33;2.07;;;19.20;99.90;;;;;;5014446;28;20181;-52
2021/07/06 00:43:59;;;;;;;2.93;1.87;;;19.20;99.90;;;;;;5014108;28;20208;-58
2021/07/06 00:46:24;;;;;;;1.80;1.70;;;19.20;99.90;;;;;;5014713;28;20215;-59
2021/07/06 00:48:50;;;;;;;2.43;1.90;;;19.20;99.90;;;;;;5013558;28;20265;-55
2021/07/06 00:51:16;;;;;;;4.50;1.90;;;19.10;99.90;;;;;;5014310;28;20211;-61
2021/07/06 00:53:41;;;;;;;1.77;1.67;;;19.10;99.90;;;;;;5013703;28;20591;-58
2021/07/06 00:56:07;;;;;;;3.57;2.00;;;19.00;99.90;;;;;;5014502;28;20173;-59
2021/07/06 00:58:33;;;;;;;2.10;1.70;;;19.00;99.90;;;;;;5014458;28;20197;-58
2021/07/06 01:00:58;;;;;;;3.20;1.80;;;19.00;99.90;;;;;;5013170;28;20206;-61
2021/07/06 01:03:24;;;;;;;1.97;1.73;;;19.00;99.90;;;;;;5014557;28;20171;-56
2021/07/06 01:05:50;;;;;;;2.57;1.53;;;19.00;99.90;;;;;;5014306;28;20183;-58
2021/07/06 01:08:15;;;;;;;3.30;1.87;;;19.00;99.90;;;;;;5013420;28;20205;-58
2021/07/06 01:10:41;;;;;;;2.50;1.93;;;18.90;99.90;;;;;;5014377;28;20186;-57
2021/07/06 01:13:08;;;;;;;3.03;1.73;;;18.90;99.90;;;;;;5013093;28;20223;-52
2021/07/06 01:15:35;;;;;;;2.80;1.60;;;18.80;99.90;;;;;;5014706;28;20179;-61
2021/07/06 01:18:13;;;;;;;2.03;1.73;;;18.70;99.90;;;;;;5014708;28;20210;-59
2021/07/06 01:20:48;;;;;;;2.00;1.80;;;18.70;99.90;;;;;;5013876;28;20198;-58
2021/07/06 01:23:17;;;;;;;1.70;1.60;;;18.70;99.90;;;;;;5014076;28;20181;-59
2021/07/06 01:25:43;;;;;;;1.90;1.80;;;18.70;99.90;;;;;;5012867;28;20202;-58
2021/07/06 01:28:09;;;;;;;2.10;1.90;;;18.70;99.90;;;;;;5014678;28;20198;-61
2021/07/06 01:30:36;;;;;;;2.07;1.70;;;18.60;99.90;;;;;;5013020;28;20175;-53
2021/07/06 01:33:01;;;;;;;1.60;1.50;;;18.60;99.90;;;;;;5013601;28;20675;-53
2021/07/06 01:35:28;;;;;;;1.70;1.60;;;18.50;99.90;;;;;;5012433;28;20249;-57
2021/07/06 01:37:57;;;;;;;3.10;1.80;;;18.50;99.90;;;;;;5014427;28;20285;-55
2021/07/06 01:40:25;;;;;;;2.03;1.83;;;18.50;99.90;;;;;;5013707;28;20180;-57
2021/07/06 01:42:51;;;;;;;2.97;1.77;;;18.50;99.90;;;;;;5014089;28;20243;-62
2021/07/06 01:45:21;;;;;;;1.43;1.33;;;18.50;99.90;;;;;;5014161;28;20259;-59
2021/07/06 01:47:51;;;;;;;2.23;1.83;;;18.60;99.90;;;;;;5014263;28;20203;-61
2021/07/06 01:50:20;;;;;;;1.83;1.53;;;18.60;99.90;;;;;;5013099;28;20202;-58
2021/07/06 01:52:48;;;;;;;2.60;1.70;;;18.50;99.90;;;;;;5013529;28;20207;-52
2021/07/06 01:55:20;;;;;;;2.10;1.83;;;18.50;99.90;;;;;;5013997;28;20183;-58
2021/07/06 01:57:46;;;;;;;1.70;1.60;;;19.50;99.90;;;;;;5012859;28;20229;-61
2021/07/06 02:00:15;;;;;;;2.30;1.80;;;18.40;99.90;;;;;;5013260;28;20582;-57
2021/07/06 02:02:42;;;;;;;3.20;1.97;;;18.40;99.90;;;;;;5013370;28;20700;-61
2021/07/06 02:05:19;;;;;;;3.63;2.20;;;18.40;99.90;;;;;;5013773;28;20179;-53
2021/07/06 02:07:47;;;;;;;2.20;2.00;;;18.40;99.90;;;;;;5012811;28;20199;-54
2021/07/06 02:10:17;;;;;;;2.20;2.00;;;18.30;99.90;;;;;;5013482;28;20650;-54
2021/07/06 02:12:44;;;;;;;2.10;1.90;;;18.30;99.90;;;;;;5012852;28;20266;-55
2021/07/06 02:15:13;;;;;;;4.10;2.03;;;18.30;99.90;;;;;;5013581;28;20701;-61
2021/07/06 02:17:39;;;;;;;2.53;2.00;;;18.20;99.90;;;;;;5013582;28;20734;-61
2021/07/06 02:20:08;;;;;;;2.10;1.93;;;18.20;99.90;;;;;;5012719;28;20183;-54
2021/07/06 02:22:37;;;;;;;2.43;1.77;;;18.20;99.90;;;;;;5013379;28;20188;-60
2021/07/06 02:25:04;;;;;;;5.07;2.10;;;18.20;99.90;;;;;;5014134;28;20185;-59
2021/07/06 02:27:30;;;;;;;2.77;1.90;;;18.10;99.90;;;;;;5012272;28;20271;-61
2021/07/06 02:29:56;;;;;;;3.07;2.10;;;18.10;99.90;;;;;;5013531;28;20182;-59
2021/07/06 02:32:21;;;;;;;2.37;2.17;;;18.10;99.90;;;;;;5013666;28;20227;-57
2021/07/06 02:34:47;;;;;;;3.37;1.80;;;18.00;99.90;;;;;;5012495;28;20166;-56
2021/07/06 02:37:12;;;;;;;2.40;1.90;;;18.00;99.90;;;;;;5024065;28;20600;-58
2021/07/06 02:39:38;;;;;;;3.87;2.50;;;18.00;99.90;;;;;;5032041;28;20274;-52
2021/07/06 02:42:04;;;;;;;3.30;2.50;;;17.90;99.90;;;;;;5032814;28;20181;-56
2021/07/06 02:44:29;;;;;;;3.27;2.80;;;17.90;99.90;;;;;;5032159;28;20628;-61
2021/07/06 02:46:55;;;;;;;3.37;2.90;;;17.90;99.90;;;;;;5033763;28;20220;-59
2021/07/06 02:49:20;;;;;;;2.97;2.50;;;17.80;99.90;;;;;;5036708;28;20183;-61
2021/07/06 02:51:46;;;;;;;4.67;2.60;;;17.80;99.90;;;;;;5036706;28;20640;-55
2021/07/06 02:54:12;;;;;;;2.63;2.17;;;17.70;99.90;;;;;;5035756;28;20281;-56
2021/07/06 02:56:37;;;;;;;3.20;2.40;;;17.70;99.90;;;;;;5036717;28;20184;-53
2021/07/06 02:59:03;;;;;;;2.40;1.90;;;17.70;99.90;;;;;;5036446;28;20169;-57
2021/07/06 03:01:29;;;;;;;2.73;2.10;;;17.80;99.90;;;;;;5035274;28;20179;-58
2021/07/06 03:03:55;;;;;;;2.43;2.10;;;17.70;99.90;;;;;;5036470;28;20259;-61
2021/07/06 03:06:20;;;;;;;3.10;2.10;;;17.70;99.90;;;;;;5035533;28;20283;-58
2021/07/06 03:08:48;;;;;;;3.53;2.63;;;17.70;99.90;;;;;;5036113;28;20192;-55
2021/07/06 03:11:14;;;;;;;3.03;2.73;;;17.60;99.90;;;;;;5035495;28;20735;-52
2021/07/06 03:13:39;;;;;;;3.33;3.03;;;17.60;99.90;;;;;;5035861;28;20258;-53
2021/07/06 03:16:05;;;;;;;2.93;2.37;;;17.60;99.90;;;;;;5036337;28;20694;-59
2021/07/06 03:18:31;;;;;;;2.87;2.67;;;17.60;99.90;;;;;;5036000;28;20655;-54
2021/07/06 03:20:56;;;;;;;1.70;1.60;;;17.60;99.90;;;;;;5036190;28;20167;-58
2021/07/06 03:23:22;;;;;;;3.57;3.23;;;17.60;99.90;;;;;;5034979;28;20681;-54
2021/07/06 03:25:48;;;;;;;3.77;3.47;;;17.60;99.90;;;;;;5035973;28;20173;-59
2021/07/06 03:28:13;;;;;;;4.27;3.87;;;17.50;99.90;;;;;;5035074;28;20185;-53
2021/07/06 03:30:39;;;;;;;5.47;3.67;;;17.60;99.90;;;;;;5035714;28;20176;-54
2021/07/06 03:33:08;;;;;;;5.23;4.30;;;17.60;99.90;;;;;;5036057;28;20536;-61
2021/07/06 03:35:35;;;;;;;3.57;3.20;;;17.60;99.90;;;;;;5034732;28;20188;-56
2021/07/06 03:38:00;;;;;;;2.67;2.47;;;17.60;99.90;;;;;;5035598;28;20238;-58
2021/07/06 03:40:27;;;;;;;3.57;2.43;;;17.60;99.90;;;;;;5034702;28;20179;-61
2021/07/06 03:42:53;;;;;;;2.80;2.60;;;17.60;99.90;;;;;;5035719;28;20172;-56
2021/07/06 03:45:20;;;;;;;2.47;2.27;;;17.60;99.90;;;;;;5035759;28;20688;-56
2021/07/06 03:47:45;;;;;;;3.10;2.40;;;17.70;99.90;;;;;;5034452;28;20235;-58
2021/07/06 03:50:18;;;;;;;2.50;2.30;;;17.70;99.90;;;;;;5035590;28;20211;-58
2021/07/06 03:52:47;;;;;;;3.03;2.63;;;17.70;99.90;;;;;;5034443;28;20206;-55
2021/07/06 03:55:14;;;;;;;2.60;2.40;;;17.70;99.90;;;;;;5035648;28;20229;-60
2021/07/06 03:57:41;;;;;;;2.67;2.10;;;17.70;99.90;;;;;;5034892;28;20192;-61
2021/07/06 04:00:10;;;;;;;2.20;1.93;;;17.80;99.90;;;;;;5035390;28;20176;-51
2021/07/06 04:02:37;;;;;;;3.03;1.77;;;17.80;99.90;;;;;;5034235;28;20191;-58
2021/07/06 04:05:05;;;;;;;2.17;1.90;;;17.80;99.90;;;;;;5035697;28;20176;-52
2021/07/06 04:07:30;;;;;;;2.00;1.90;;;17.80;99.90;;;;;;5035198;28;20283;-59
2021/07/06 04:09:56;;;;;;;2.03;1.90;;;17.80;99.90;;;;;;5034308;28;20270;-61
2021/07/06 04:12:22;;;;;;;3.23;1.90;;;17.80;99.90;;;;;;5035083;28;20202;-58
2021/07/06 04:14:48;;;;;;;2.50;2.00;;;17.80;99.90;;;;;;5034461;28;20188;-61
2021/07/06 04:17:13;;;;;;;1.70;1.60;;;17.90;99.90;;;;;;5035181;28;20192;-58
2021/07/06 04:19:39;;;;;;;1.87;1.67;;;17.90;99.90;;;;;;5034266;28;20203;-52
2021/07/06 04:22:05;;;;;;;2.40;1.70;;;18.00;99.90;;;;;;5034985;28;20172;-61
2021/07/06 04:24:31;;;;;;;2.57;2.10;;;18.10;99.90;;;;;;5034583;28;20176;-57
2021/07/06 04:27:00;;;;;;;2.13;1.90;;;18.10;99.90;;;;;;5033734;28;20199;-55
2021/07/06 04:29:27;;;;;;;4.87;2.20;;;18.10;99.90;;;;;;5034442;28;20168;-56
2021/07/06 04:31:53;;;;;;;6.73;1.90;;;18.10;99.90;;;;;;5033576;28;20204;-59
2021/07/06 04:34:20;;;;;;;1.70;1.60;;;18.20;99.90;;;;;;5035103;28;20219;-60
2021/07/06 04:36:46;;;;;;;2.73;2.00;;;18.30;99.90;;;;;;5034282;28;20675;-58
2021/07/06 04:39:11;;;;;;;2.87;2.03;;;18.30;99.90;;;;;;5034432;28;20160;-53
2021/07/06 04:41:37;;;;;;;3.60;2.40;;;18.40;99.90;;;;;;5034431;28;20260;-54
2021/07/06 04:44:02;;;;;;;4.03;2.77;;;18.50;99.90;;;;;;5033757;28;20528;-56
2021/07/06 04:46:28;;;;;;;4.90;2.50;;;18.60;99.90;;;;;;5033963;28;20578;-60
2021/07/06 04:48:54;;;;;;;2.90;2.60;;;18.60;99.90;;;;;;5035338;28;20176;-58
2021/07/06 04:51:20;;;;;;;4.53;2.80;;;18.60;99.90;;;;;;5033902;28;20173;-51
2021/07/06 04:53:46;;;;;;;3.43;3.07;;;18.60;99.90;;;;;;5033393;28;20193;-60
2021/07/06 04:56:11;;;;;;;5.93;3.00;;;18.60;99.90;;;;;;5034170;28;20176;-59
2021/07/06 04:58:37;;;;;;;2.90;2.70;;;18.50;99.90;;;;;;5031941;28;20201;-52
2021/07/06 05:01:04;;;;;;;3.23;2.80;;;18.50;99.90;;;;;;5034194;28;20177;-58
2021/07/06 05:03:32;;;;;;;4.10;2.47;;;18.60;99.90;;;;;;5034143;28;20175;-59
2021/07/06 05:05:58;;;;;;;4.20;3.07;;;18.60;99.90;;;;;;5034101;28;20176;-61
2021/07/06 05:08:23;;;;;;;3.10;2.80;;;18.60;99.90;;;;;;5033585;28;20204;-57
2021/07/06 05:10:50;;;;;;;3.13;2.80;;;18.60;99.90;;;;;;5033122;28;20180;-61
2021/07/06 05:13:16;;;;;;;4.93;3.07;;;18.70;99.90;;;;;;5033006;28;20249;-57
2021/07/06 05:15:41;;;;;;;3.40;2.47;;;18.90;99.90;;;;;;5034627;28;20175;-56
2021/07/06 05:18:08;;;;;;;3.30;2.40;;;19.00;99.90;;;;;;5032781;28;20207;-54
2021/07/06 05:20:34;;;;;;;2.27;2.07;;;19.10;99.90;;;;;;5034098;28;20195;-57
2021/07/06 05:22:59;;;;;;;2.33;2.10;;;19.30;99.90;;;;;;5033488;28;20172;-61
2021/07/06 05:25:25;;;;;;;7.20;2.83;;;19.50;99.90;;;;;;5032993;28;20188;-53
2021/07/06 05:27:50;;;;;;;3.10;2.30;;;19.40;99.90;;;;;;5033322;28;20257;-58
2021/07/06 05:30:16;;;;;;;3.63;2.23;;;19.40;99.90;;;;;;5033282;28;20640;-59
2021/07/06 05:32:42;;;;;;;2.17;1.97;;;19.40;99.90;;;;;;5031333;28;20722;-53
2021/07/06 05:35:08;;;;;;;2.10;1.90;;;19.40;99.90;;;;;;5033304;28;20183;-62
2021/07/06 05:37:36;;;;;;;4.53;2.10;;;19.50;99.90;;;;;;5030787;28;20212;-62
2021/07/06 05:40:04;;;;;;;2.40;2.00;;;19.60;99.90;;;;;;5030834;28;20245;-62
2021/07/06 05:42:30;;;;;;;2.73;1.63;;;19.60;99.90;;;;;;5033278;28;20206;-53
2021/07/06 05:44:56;;;;;;;1.50;1.40;;;19.80;99.90;;;;;;5032739;28;20211;-55
2021/07/06 05:47:21;;;;;;;1.87;1.67;;;19.80;99.90;;;;;;5032612;28;20189;-54
2021/07/06 05:49:47;;;;;;;1.60;1.50;;;19.80;99.90;;;;;;5033394;28;20168;-52
2021/07/06 05:52:13;;;;;;;1.80;1.50;;;19.90;99.90;;;;;;5032571;28;20207;-61
2021/07/06 05:54:38;;;;;;;2.57;1.63;;;20.00;99.90;;;;;;5033923;28;20561;-62
2021/07/06 05:57:04;;;;;;;2.17;1.63;;;20.10;99.90;;;;;;5032930;28;20199;-62
2021/07/06 05:59:29;;;;;;;1.73;1.63;;;20.00;99.90;;;;;;5032847;28;20550;-60
2021/07/06 06:01:55;;;;;;;2.43;1.47;;;20.20;99.90;;;;;;5033164;28;20266;-56
2021/07/06 06:04:20;;;;;;;3.73;1.40;;;20.20;99.90;;;;;;5033207;28;20176;-59
2021/07/06 06:06:46;;;;;;;3.57;1.70;;;20.30;99.90;;;;;;5032307;28;20214;-62
2021/07/06 06:09:12;;;;;;;2.93;1.60;;;20.30;99.90;;;;;;5033066;28;20188;-61
2021/07/06 06:11:38;;;;;;;2.30;1.50;;;20.40;99.90;;;;;;5032173;28;20199;-58
2021/07/06 06:14:03;;;;;;;1.50;1.30;;;20.40;99.90;;;;;;5032774;28;20175;-62
2021/07/06 06:16:30;;;;;;;1.37;1.23;;;20.40;99.90;;;;;;5026573;28;20592;-62
2021/07/06 06:18:55;;;;;;;1.50;1.40;;;20.40;99.90;;;;;;5028081;28;20173;-63
2021/07/06 06:21:23;;;;;;;1.50;1.40;;;20.50;99.90;;;;;;5028367;28;20175;-57
2021/07/06 06:23:48;;;;;;;1.80;1.40;;;20.50;99.90;;;;;;5033658;28;20933;-56
2021/07/06 06:26:14;;;;;;;1.93;1.70;;;20.70;99.90;;;;;;5034721;28;20295;-59
2021/07/06 06:28:40;;;;;;;1.50;1.40;;;20.80;99.90;;;;;;5033302;28;20192;-57
2021/07/06 06:31:07;;;;;;;3.03;1.70;;;20.80;99.90;;;;;;5033093;28;20211;-62
2021/07/06 06:33:32;;;;;;;2.03;1.67;;;20.90;99.90;;;;;;5034037;28;20230;-53
2021/07/06 06:35:58;;;;;;;2.10;1.37;;;21.00;99.90;;;;;;5033521;28;20176;-54
2021/07/06 06:38:24;;;;;;;1.20;1.10;;;21.00;99.90;;;;;;5036406;28;20872;-54
2021/07/06 06:40:50;;;;;;;1.63;1.53;;;21.10;99.90;;;;;;5037346;28;20172;-52
2021/07/06 06:43:15;;;;;;;2.22;1.58;;;21.20;99.90;;;;;;5036574;28;20200;-62
2021/07/06 06:45:41;;;;;;;2.83;1.42;;;21.30;99.90;;;;;;5037588;28;20616;-57
2021/07/06 06:48:07;;;;;;;2.72;1.52;;;21.40;99.90;;;;;;5036827;28;20205;-61
2021/07/06 06:50:32;;;;;;;1.75;1.40;;;21.50;99.90;;;;;;5036777;28;20191;-52
2021/07/06 06:52:58;;;;;;;1.40;1.30;;;21.60;99.90;;;;;;5035426;28;20295;-55
2021/07/06 06:55:23;;;;;;;3.25;1.75;;;21.60;99.90;;;;;;5037196;28;20166;-60
2021/07/06 06:57:49;;;;;;;2.00;1.23;;;21.70;99.90;;;;;;5036123;28;20236;-58
2021/07/06 07:00:15;;;;;;;1.50;1.40;;;21.80;99.90;;;;;;5035765;28;20184;-60
2021/07/06 07:02:43;;;;;;;1.58;1.42;;;21.90;99.90;;;;;;5036328;28;20263;-57
2021/07/06 07:05:11;;;;;;;1.77;1.50;;;22.00;99.90;;;;;;5035752;28;20586;-59
2021/07/06 07:07:37;;;;;;;1.52;1.40;;;22.10;99.90;;;;;;5036513;28;20195;-61
2021/07/06 07:10:03;;;;;;;2.38;1.40;;;22.20;99.90;;;;;;5036112;28;20260;-53
2021/07/06 07:12:29;;;;;;;3.30;1.30;;;22.20;99.90;;;;;;5034962;28;20211;-58
2021/07/06 07:14:55;;;;;;;1.58;1.33;;;22.30;99.90;;;;;;5036314;28;20182;-61
2021/07/06 07:17:22;;;;;;;1.73;1.40;;;22.40;99.90;;;;;;5036112;28;20275;-60
2021/07/06 07:19:47;;;;;;;1.98;1.40;;;22.50;99.90;;;;;;5036133;28;20217;-57
2021/07/06 07:22:14;;;;;;;1.17;1.10;;;22.30;99.90;;;;;;5035143;28;20192;-60
2021/07/06 07:24:39;;;;;;;1.48;1.25;;;22.40;99.90;;;;;;5036518;28;20179;-62
2021/07/06 07:27:05;;;;;;;0.90;0.90;;;22.50;99.90;;;;;;5035829;28;20187;-57
2021/07/06 07:29:31;;;;;;;1.73;1.27;;;22.50;99.90;;;;;;5035276;28;20172;-57
2021/07/06 07:31:57;;;;;;;1.70;1.20;;;22.60;99.90;;;;;;5035551;28;20206;-60
2021/07/06 07:34:22;;;;;;;1.58;1.02;;;22.60;99.90;;;;;;5035340;28;20203;-61
2021/07/06 07:36:48;;;;;;;1.13;1.10;;;22.70;99.90;;;;;;5034962;28;20207;-61
2021/07/06 07:39:14;;;;;;;0.90;0.90;;;22.70;99.90;;;;;;5036437;28;20176;-61
2021/07/06 07:41:40;;;;;;;1.23;1.00;;;22.70;99.90;;;;;;5035688;28;20218;-54
2021/07/06 07:44:06;;;;;;;2.03;1.10;;;22.90;99.90;;;;;;5034860;28;20221;-61
2021/07/06 07:46:31;;;;;;;1.17;1.08;;;23.10;99.90;;;;;;5035679;28;20203;-58
2021/07/06 07:48:57;;;;;;;1.00;0.90;;;23.10;99.90;;;;;;5034568;28;20191;-54
2021/07/06 07:51:23;;;;;;;1.10;1.00;;;23.10;99.90;;;;;;5035432;28;20536;-58
2021/07/06 07:53:48;;;;;;;1.02;1.02;;;23.20;99.90;;;;;;5034710;28;20207;-58
2021/07/06 07:56:14;;;;;;;2.08;1.27;;;23.50;99.90;;;;;;5035342;28;20640;-61
2021/07/06 07:58:40;;;;;;;1.35;1.25;;;23.70;99.90;;;;;;5035373;28;20200;-62
2021/07/06 08:01:05;;;;;;;1.35;1.23;;;23.90;99.90;;;;;;5035395;28;20169;-58
2021/07/06 08:03:31;;;;;;;1.20;1.00;;;23.80;99.90;;;;;;5033017;28;20196;-59
2021/07/06 08:05:58;;;;;;;2.15;1.20;;;24.00;99.90;;;;;;5035676;28;20168;-59
2021/07/06 08:08:24;;;;;;;1.20;1.05;;;23.90;99.90;;;;;;5035966;28;20191;-58
2021/07/06 08:10:53;;;;;;;2.25;1.42;;;24.00;99.90;;;;;;5034109;28;20266;-58
2021/07/06 08:13:20;;;;;;;1.80;1.10;;;24.10;99.90;;;;;;5035069;28;20224;-60
2021/07/06 08:15:45;;;;;;;1.20;1.10;;;24.10;99.90;;;;;;5035738;28;20195;-58
2021/07/06 08:18:11;;;;;;;0.82;0.82;;;24.00;99.90;;;;;;5035098;28;20245;-61
2021/07/06 08:20:36;;;;;;;1.02;1.00;;;24.00;99.90;;;;;;5033911;28;20653;-53
2021/07/06 08:23:02;;;;;;;1.23;1.13;;;24.00;99.90;;;;;;5035293;28;20176;-57
2021/07/06 08:25:28;;;;;;;1.67;1.10;;;24.00;99.90;;;;;;5033998;28;20176;-57
2021/07/06 08:27:54;;;;;;;2.55;1.02;;;24.10;99.90;;;;;;5050033;28;20671;-59
2021/07/06 08:30:19;;;;;;;0.75;0.75;;;24.40;99.90;;;;;;5035078;28;20575;-55
2021/07/06 08:32:45;;;;;;;1.10;0.98;;;24.60;99.90;;;;;;5033581;28;20222;-51
2021/07/06 08:35:11;;;;;;;0.80;0.80;;;24.70;99.90;;;;;;5034962;28;20245;-57
2021/07/06 08:37:37;;;;;;;0.85;0.80;;;24.80;99.90;;;;;;5035167;28;20230;-56
2021/07/06 08:40:07;;;;;;;1.58;1.00;;;24.90;99.90;;;;;;5033780;28;20172;-57
2021/07/06 08:42:33;;;;;;;2.35;1.10;;;25.00;99.90;;;;;;5034307;28;20222;-57
2021/07/06 08:44:59;;;;;;;1.50;0.77;;;25.00;99.90;;;;;;5033438;28;20196;-57
2021/07/06 08:47:26;;;;;;;0.65;0.65;;;25.00;99.90;;;;;;5034509;28;20233;-51
2021/07/06 08:49:53;;;;;;;2.25;1.10;;;25.10;99.90;;;;;;5033988;28;20180;-57
2021/07/06 08:52:19;;;;;;;0.70;0.70;;;25.20;99.90;;;;;;5033894;28;20274;-56
2021/07/06 08:54:47;;;;;;;0.80;0.80;;;25.50;99.90;;;;;;5035039;28;20230;-56
2021/07/06 08:57:13;;;;;;;1.27;1.00;;;25.50;99.90;;;;;;5033519;28;20206;-59
2021/07/06 08:59:40;;;;;;;1.13;1.02;;;25.60;99.90;;;;;;5034634;28;20168;-57
2021/07/06 09:02:10;;;;;;;0.80;0.80;;;25.90;99.90;;;;;;5033596;28;20225;-59
2021/07/06 09:04:43;;;;;;;1.70;0.88;;;26.10;99.90;;;;;;5034119;28;20572;-52
2021/07/06 09:07:09;;;;;;;1.20;0.73;;;26.30;99.90;;;;;;5034589;28;20279;-52
2021/07/06 09:09:34;;;;;;;0.50;0.50;;;26.60;99.90;;;;;;5032993;28;20282;-54
2021/07/06 09:12:00;;;;;;;1.13;0.57;;;26.80;99.90;;;;;;5034083;28;20246;-54
2021/07/06 09:14:36;;;;;;;1.05;0.77;;;26.90;99.90;;;;;;5033446;28;20208;-55
2021/07/06 09:17:17;;;;;;;2.55;0.85;;;27.10;99.90;;;;;;5033992;28;20241;-55
2021/07/06 09:19:45;;;;;;;0.80;0.80;;;27.10;99.90;;;;;;5034078;28;20222;-57
2021/07/06 09:22:24;;;;;;;0.80;0.80;;;27.20;99.90;;;;;;5033015;28;20253;-54
2021/07/06 09:25:15;;;;;;;0.68;0.68;;;27.10;99.90;;;;;;5034176;28;20652;-54
2021/07/06 09:27:41;;;;;;;0.88;0.82;;;26.80;99.90;;;;;;5032244;28;20215;-52
2021/07/06 09:30:23;;;;;;;0.70;0.70;;;26.80;99.90;;;;;;5032895;28;20222;-57
2021/07/06 09:32:54;;;;;;;0.60;0.60;;;26.90;99.90;;;;;;5033685;28;20207;-58
2021/07/06 09:35:23;;;;;;;1.58;1.02;;;26.90;99.90;;;;;;5032986;28;20180;-58
2021/07/06 09:38:04;;;;;;;1.20;0.80;;;27.10;99.90;;;;;;5034243;28;20196;-57
2021/07/06 09:40:29;;;;;;;2.35;0.90;;;27.00;99.90;;;;;;5032098;28;20547;-56
2021/07/06 09:43:27;;;;;;;1.40;0.80;;;27.10;99.90;;;;;;5033226;28;20699;-55
2021/07/06 09:46:09;;;;;;;2.38;0.68;;;27.10;99.90;;;;;;5032776;28;20192;-58
2021/07/06 09:48:39;;;;;;;1.42;0.88;;;26.90;99.90;;;;;;5031363;28;20192;-56
2021/07/06 09:51:15;;;;;;;2.60;1.10;;;26.90;99.90;;;;;;5033230;28;20620;-59
2021/07/06 09:53:44;;;;;;;0.90;0.90;;;27.00;99.90;;;;;;5032581;28;20202;-57
2021/07/06 09:56:16;;;;;;;2.45;0.82;;;27.10;99.90;;;;;;5034313;28;20172;-52
2021/07/06 09:58:57;;;;;;;1.52;0.88;;;27.40;99.90;;;;;;5037662;28;20192;-56
2021/07/06 10:01:24;;;;;;;1.13;0.70;;;27.40;99.90;;;;;;5031423;28;20180;-56
2021/07/06 10:03:51;;;;;;;0.70;0.70;;;27.40;99.90;;;;;;5030594;28;20164;-54
2021/07/06 10:06:19;;;;;;;0.70;0.70;;;27.60;99.90;;;;;;5029843;28;20181;-57
2021/07/06 10:08:45;;;;;;;0.80;0.80;;;27.70;99.90;;;;;;5027616;28;20205;-57
2021/07/06 10:11:10;;;;;;;0.60;0.60;;;27.80;99.90;;;;;;5017258;28;20180;-57
2021/07/06 10:13:39;;;;;;;0.77;0.77;;;27.90;99.90;;;;;;5018132;28;20323;-57
2021/07/06 10:16:05;;;;;;;0.50;0.50;;;28.00;99.90;;;;;;5017516;28;20181;-56
2021/07/06 10:18:32;;;;;;;0.85;0.60;;;28.10;99.90;;;;;;5026109;28;20286;-57
2021/07/06 10:21:02;;;;;;;0.82;0.70;;;28.40;99.90;;;;;;5033110;28;20200;-57
2021/07/06 10:23:28;;;;;;;0.65;0.65;;;28.60;99.90;;;;;;5036313;28;20180;-53
2021/07/06 10:25:56;;;;;;;1.08;0.88;;;28.80;99.90;;;;;;5036341;28;20212;-55
2021/07/06 10:28:25;;;;;;;0.70;0.70;;;28.90;99.90;;;;;;5036569;28;20215;-55
2021/07/06 10:30:50;;;;;;;0.80;0.80;;;28.90;99.90;;;;;;5035968;28;20183;-54
2021/07/06 10:33:34;;;;;;;2.25;0.70;;;29.20;99.90;;;;;;5034895;28;20203;-52
2021/07/06 10:36:01;;;;;;;0.63;0.63;;;28.90;99.90;;;;;;5035615;28;20191;-55
2021/07/06 10:38:26;;;;;;;0.70;0.70;;;28.90;99.90;;;;;;5034588;28;20739;-57
2021/07/06 10:40:53;;;;;;;0.57;0.57;;;28.90;99.90;;;;;;5035760;28;20203;-57
2021/07/06 10:43:37;;;;;;;0.60;0.60;;;29.10;99.90;;;;;;5034934;28;20528;-57
2021/07/06 10:46:15;;;;;;;0.70;0.50;;;29.20;99.90;;;;;;5052036;28;20578;-58
2021/07/06 10:48:43;;;;;;;2.40;0.88;;;29.10;99.90;;;;;;5037217;28;20215;-56
2021/07/06 10:51:29;;;;;;;0.50;0.50;;;29.20;99.90;;;;;;5037168;28;20172;-56
2021/07/06 10:54:19;;;;;;;0.60;0.60;;;29.30;99.90;;;;;;5036772;28;20188;-53
2021/07/06 10:56:53;;;;;;;1.10;0.77;;;29.10;99.90;;;;;;5036321;28;20160;-56
2021/07/06 10:59:30;;;;;;;1.10;0.60;;;29.30;99.90;;;;;;5036543;28;20176;-53
2021/07/06 11:01:59;;;;;;;0.60;0.60;;;29.30;99.90;;;;;;5036283;28;20180;-56
2021/07/06 11:04:36;;;;;;;0.73;0.73;;;29.40;99.90;;;;;;5035814;28;20191;-55
2021/07/06 11:07:06;;;;;;;0.75;0.60;;;29.60;99.90;;;;;;5036084;28;20199;-55
2021/07/06 11:09:33;;;;;;;0.50;0.50;;;29.70;99.90;;;;;;5034584;28;20208;-54
2021/07/06 11:12:22;;;;;;;0.63;0.63;;;29.80;99.90;;;;;;5036150;28;20212;-56
2021/07/06 11:15:15;;;;;;;1.27;0.68;;;29.90;99.90;;;;;;5035800;28;20164;-53
2021/07/06 11:17:45;;;;;;;1.77;0.50;;;30.30;99.90;;;;;;5034498;28;20203;-57
2021/07/06 11:20:28;;;;;;;1.10;0.68;;;30.40;99.90;;;;;;5036327;28;20632;-55
2021/07/06 11:22:55;;;;;;;0.50;0.50;;;30.40;99.90;;;;;;5035025;28;20183;-55
2021/07/06 11:25:29;;;;;;;0.70;0.60;;;30.30;99.90;;;;;;5036307;28;20168;-56
2021/07/06 11:28:14;;;;;;;1.13;0.70;;;30.40;99.90;;;;;;5036091;28;20259;-56
2021/07/06 11:30:43;;;;;;;0.60;0.60;;;30.50;99.90;;;;;;5035858;28;20172;-57
2021/07/06 11:33:19;;;;;;;2.17;0.50;;;30.60;99.90;;;;;;5036266;28;20303;-54
2021/07/06 11:35:52;;;;;;;1.38;0.60;;;30.70;99.90;;;;;;5035169;28;20216;-58
2021/07/06 11:38:26;;;;;;;1.15;0.80;;;30.70;99.90;;;;;;5035833;28;20192;-56
2021/07/06 11:40:54;;;;;;;0.85;0.50;;;30.90;99.90;;;;;;5036257;28;20191;-56
2021/07/06 11:43:22;;;;;;;0.60;0.60;;;31.00;99.90;;;;;;5034696;28;20176;-52
2021/07/06 11:45:55;;;;;;;0.73;0.70;;;30.90;99.90;;;;;;5035857;28;20262;-57
2021/07/06 11:48:24;;;;;;;0.73;0.65;;;30.80;99.90;;;;;;5034778;28;20287;-54
2021/07/06 11:50:50;;;;;;;0.52;0.47;;;30.90;99.90;;;;;;5035532;28;20176;-58
2021/07/06 11:53:23;;;;;;;0.45;0.45;;;30.90;99.90;;;;;;5034401;28;20200;-57
2021/07/06 11:55:50;;;;;;;0.52;0.52;;;31.10;99.90;;;;;;5035736;28;20263;-55
2021/07/06 11:58:20;;;;;;;0.52;0.52;;;31.10;99.90;;;;;;5035236;28;20262;-54
2021/07/06 12:00:46;;;;;;;0.68;0.45;;;30.80;99.90;;;;;;5034442;28;20184;-60
2021/07/06 12:03:26;;;;;;;1.02;0.70;;;30.80;99.90;;;;;;5034903;28;20199;-51
2021/07/06 12:06:12;;;;;;;0.40;0.32;;;30.90;99.90;;;;;;5035323;28;20160;-58
2021/07/06 12:08:47;;;;;;;0.47;0.47;;;31.30;99.90;;;;;;5034629;28;20695;-58
2021/07/06 12:11:18;;;;;;;0.43;0.43;;;31.60;99.80;;;;;;5035170;28;20199;-51
2021/07/06 12:13:43;;;;;;;0.95;0.75;;;31.60;99.30;;;;;;5033951;28;20223;-55
2021/07/06 12:16:14;;;;;;;0.32;0.32;;;31.70;98.70;;;;;;5035129;28;20172;-52
2021/07/06 12:18:59;;;;;;;0.40;0.40;;;31.60;98.60;;;;;;5033931;28;20184;-56
2021/07/06 12:21:28;;;;;;;0.88;0.50;;;31.60;99.50;;;;;;5022966;28;20235;-55
2021/07/06 12:23:56;;;;;;;0.80;0.60;;;31.80;98.60;;;;;;5015216;28;20545;-55
2021/07/06 12:26:22;;;;;;;0.45;0.40;;;32.10;99.30;;;;;;5014315;28;20221;-57
2021/07/06 12:28:48;;;;;;;0.63;0.52;;;32.40;99.40;;;;;;5015359;28;20193;-56
2021/07/06 12:31:30;;;;;;;0.30;0.30;;;32.50;98.40;;;;;;5014342;28;20157;-54
2021/07/06 12:34:16;;;;;;;0.60;0.32;;;32.30;97.40;;;;;;5020279;28;20176;-56
2021/07/06 12:36:58;;;;;;;0.55;0.40;;;32.10;98.90;;;;;;5014896;28;20608;-57
2021/07/06 12:39:26;;;;;;;0.40;0.40;;;31.90;97.10;;;;;;5014999;28;20165;-56
2021/07/06 12:41:56;;;;;;;0.30;0.30;;;32.00;98.10;;;;;;5014210;28;20176;-55
2021/07/06 12:44:38;;;;;;;0.38;0.30;;;32.30;97.70;;;;;;5014463;28;20252;-59
2021/07/06 12:47:22;;;;;;;0.45;0.32;;;32.70;96.90;;;;;;5015152;28;20203;-54
2021/07/06 12:49:51;;;;;;;1.20;0.50;;;32.70;96.90;;;;;;5013886;28;20183;-55
2021/07/06 12:52:18;;;;;;;0.75;0.40;;;32.60;95.30;;;;;;5014820;28;20201;-56